Pinole, CA

1:01 PM PST on December 10, 2016 (GMT -0800)
Bayview-Montalvin | | Change Station

Elev 59 ft 38.01 °N, 122.32 °W | Updated 14 seconds ago

Rain
Rain
58.7 °F
Feels Like 58.7 °F
N
0.0
Wind Variable Wind from North
Gusts 0.0 mph

Today
High -- | Low -- °F
--% Chance of Precip.
Yesterday
High -- | Low -- °F
Precip. -- in
Pressure 30.00 in
Visibility 2.0 miles
Clouds Overcast 2300 ft
Dew Point 55 °F
Humidity 89%
Rainfall 0.30 in
Snow Depth Not available.
7:14 AM 4:49 PM
Waxing Gibbous, 86% visible
METAR KCCR 102053Z 19008KT 2SM RA BR OVC023 17/14 A3004 RMK AO2 SLP158 P0008 60015 T01670144 58019
Pressure 30.00 in
Visibility 2.0 miles
Clouds Overcast 2300 ft
Dew Point 55 °F
Humidity 89%
Rainfall 0.30 in
Snow Depth Not available.
7:14 AM 4:49 PM
Waxing Gibbous, 86% visible
METAR KCCR 102053Z 19008KT 2SM RA BR OVC023 17/14 A3004 RMK AO2 SLP158 P0008 60015 T01670144 58019

10-Day Weather Forecast

Almanac

Astronomy

Dec. 10, 2016 Rise Set
Actual Time
Civil Twilight
Nautical Twilight
Astronomical Twilight
Moon
Length of Visible Light
Length of Day
Tomorrow will be .
, % of the Moon is Illuminated

Today's Extremes

State Highs State Lows

Community

WunderPhotos

Upload Photos

1,956,659 photos uploaded!

WunderBlog® & News

Nearby

Air Quality

  Air Quality AQ Index Pollutant
Not available.

Snow Depth

Station Depth Elevation

Earthquake Activity

City Distance Mag. Time & Date
Minimum magnitude displayed is 2.5.

Coastal Water Temperatures

Place Temperature

Stations

Nearby Weather Stations

Station Location Temp. Windchill Dew Point Humidity Wind Precip. Elev Updated Type
                   

Watches & Warnings

There are currently no watches in effect.